createdAt,value
2022-11-16T00:01:35.752Z,7.43
2022-11-16T00:04:04.530Z,6.93
2022-11-16T00:06:32.036Z,5.50
2022-11-16T00:09:20.567Z,5.07
2022-11-16T00:11:51.359Z,4.22
2022-11-16T00:14:20.259Z,6.03
2022-11-16T00:16:47.505Z,6.05
2022-11-16T00:19:14.684Z,5.82
2022-11-16T00:21:42.339Z,4.72
2022-11-16T00:24:13.601Z,6.85
2022-11-16T00:26:41.389Z,4.88
2022-11-16T00:29:15.128Z,5.32
2022-11-16T00:31:42.742Z,6.03
2022-11-16T00:34:09.970Z,6.68
2022-11-16T00:36:37.201Z,6.32
2022-11-16T00:39:04.837Z,6.75
2022-11-16T00:41:31.955Z,6.97
2022-11-16T00:43:59.290Z,5.93
2022-11-16T00:46:26.390Z,4.65
2022-11-16T00:48:53.900Z,5.45
2022-11-16T00:51:21.018Z,5.20
2022-11-16T00:53:48.299Z,6.93
2022-11-16T00:56:15.374Z,5.15
2022-11-16T00:58:44.265Z,10.30
2022-11-16T01:01:12.753Z,4.72
2022-11-16T01:03:40.158Z,5.38
2022-11-16T01:06:13.608Z,4.70
2022-11-16T01:08:42.395Z,3.97
2022-11-16T01:11:28.833Z,6.75
2022-11-16T01:13:59.208Z,8.07
2022-11-16T01:16:26.281Z,5.00
2022-11-16T01:18:55.184Z,5.28
2022-11-16T01:21:23.327Z,4.57
2022-11-16T01:23:51.178Z,4.55
2022-11-16T01:26:18.844Z,7.10
2022-11-16T01:28:46.283Z,7.05
2022-11-16T01:31:14.480Z,5.38
2022-11-16T01:33:42.648Z,5.70
2022-11-16T01:36:19.636Z,7.05
2022-11-16T01:38:47.542Z,7.35
2022-11-16T01:41:27.042Z,7.05
2022-11-16T01:44:07.183Z,8.02
2022-11-16T01:46:49.897Z,5.53
2022-11-16T01:49:20.843Z,5.80
2022-11-16T01:51:57.688Z,5.53
2022-11-16T01:54:27.548Z,6.80
2022-11-16T01:57:03.000Z,6.72
2022-11-16T01:59:40.566Z,6.28
2022-11-16T02:02:14.319Z,7.00
2022-11-16T02:04:41.824Z,7.32
2022-11-16T02:07:27.685Z,10.90
2022-11-16T02:10:16.111Z,6.15
2022-11-16T02:13:18.440Z,6.20
2022-11-16T02:15:58.705Z,5.93
2022-11-16T02:18:45.493Z,8.35
2022-11-16T02:21:26.809Z,6.57
2022-11-16T02:24:21.123Z,5.60
2022-11-16T02:27:06.183Z,4.88
2022-11-16T02:29:39.979Z,7.65
2022-11-16T02:32:17.389Z,3.80
2022-11-16T02:34:52.731Z,5.03
2022-11-16T02:37:23.581Z,6.03
2022-11-16T02:39:57.620Z,7.28
2022-11-16T02:42:56.397Z,5.47
2022-11-16T02:45:29.167Z,5.90
2022-11-16T02:48:01.681Z,5.05
2022-11-16T02:50:30.206Z,11.20
2022-11-16T02:52:57.257Z,5.38
2022-11-16T02:55:28.756Z,5.82
2022-11-16T02:58:02.820Z,7.15
2022-11-16T03:00:43.694Z,7.35
2022-11-16T03:03:17.790Z,6.85
2022-11-16T03:05:50.521Z,6.22
2022-11-16T03:08:35.496Z,5.20
2022-11-16T03:11:27.295Z,4.78
2022-11-16T03:14:03.667Z,5.57
2022-11-16T03:16:45.440Z,6.13
2022-11-16T03:19:17.258Z,5.68
2022-11-16T03:21:49.235Z,5.03
2022-11-16T03:24:16.823Z,6.05
2022-11-16T03:27:02.817Z,6.97
2022-11-16T03:29:34.055Z,5.80
2022-11-16T03:32:26.423Z,8.63
2022-11-16T03:35:03.728Z,7.82
2022-11-16T03:37:33.259Z,7.07
2022-11-16T03:40:04.180Z,4.95
2022-11-16T03:42:33.957Z,4.60
2022-11-16T03:45:01.957Z,5.65
2022-11-16T03:47:30.062Z,5.65
2022-11-16T03:49:57.692Z,11.88
2022-11-16T03:52:25.546Z,7.13
2022-11-16T03:54:52.862Z,4.43
2022-11-16T03:57:20.458Z,5.13
2022-11-16T03:59:53.802Z,5.65
2022-11-16T04:02:21.137Z,10.02
2022-11-16T04:05:08.726Z,7.32
2022-11-16T04:07:56.043Z,6.43
2022-11-16T04:10:41.917Z,7.35
2022-11-16T04:13:31.226Z,5.43
2022-11-16T04:16:17.058Z,4.93
2022-11-16T04:19:03.727Z,5.07
2022-11-16T04:22:02.755Z,5.50
2022-11-16T04:24:38.118Z,4.93
2022-11-16T04:27:28.381Z,7.70
2022-11-16T04:29:58.705Z,5.30
2022-11-16T04:32:53.636Z,6.68
2022-11-16T04:35:39.213Z,7.25
2022-11-16T04:38:08.422Z,7.63
2022-11-16T04:40:36.757Z,7.28
2022-11-16T04:43:05.103Z,6.05
2022-11-16T04:45:58.302Z,6.70
2022-11-16T04:48:33.233Z,6.18
2022-11-16T04:51:02.595Z,8.07
2022-11-16T04:53:30.086Z,5.72
2022-11-16T04:56:12.736Z,6.47
2022-11-16T04:58:39.869Z,7.90
2022-11-16T05:01:08.207Z,6.75
2022-11-16T05:03:36.396Z,7.05
2022-11-16T05:06:04.956Z,6.68
2022-11-16T05:08:32.973Z,7.30
2022-11-16T05:11:02.852Z,7.47
2022-11-16T05:13:30.067Z,6.78
2022-11-16T05:15:57.837Z,6.97
2022-11-16T05:18:25.914Z,5.78
2022-11-16T05:21:01.879Z,6.60
2022-11-16T05:23:56.873Z,9.32
2022-11-16T05:26:28.589Z,8.15
2022-11-16T05:28:55.857Z,5.03
2022-11-16T05:31:23.036Z,6.43
2022-11-16T05:33:50.303Z,7.47
2022-11-16T05:36:18.847Z,7.00
2022-11-16T05:38:46.335Z,6.80
2022-11-16T05:41:14.500Z,9.68
2022-11-16T05:43:42.649Z,6.60
2022-11-16T05:46:17.966Z,8.77
2022-11-16T05:48:45.760Z,6.78
2022-11-16T05:51:13.267Z,7.10
2022-11-16T05:53:40.649Z,12.43
2022-11-16T05:56:08.085Z,8.48
2022-11-16T05:58:38.808Z,7.65
2022-11-16T06:01:06.631Z,7.25
2022-11-16T06:03:35.684Z,7.35
2022-11-16T06:06:04.652Z,8.18
2022-11-16T06:08:32.733Z,11.13
2022-11-16T06:11:04.809Z,8.45
2022-11-16T06:13:33.456Z,8.23
2022-11-16T06:16:02.592Z,9.77
2022-11-16T06:18:32.084Z,8.07
2022-11-16T06:20:59.490Z,9.30
2022-11-16T06:23:27.039Z,8.27
2022-11-16T06:25:55.756Z,8.85
2022-11-16T06:28:26.090Z,10.48
2022-11-16T06:30:54.160Z,8.35
2022-11-16T06:33:23.908Z,10.05
2022-11-16T06:35:51.394Z,9.65
2022-11-16T06:38:24.582Z,8.73
2022-11-16T06:40:56.913Z,12.27
2022-11-16T06:43:26.873Z,9.65
2022-11-16T06:45:58.235Z,9.95
2022-11-16T06:48:26.394Z,10.93
2022-11-16T06:50:54.313Z,9.07
2022-11-16T06:53:27.742Z,9.13
2022-11-16T06:56:06.443Z,7.07
2022-11-16T06:58:41.694Z,11.15
2022-11-16T07:01:12.134Z,10.70
2022-11-16T07:03:41.820Z,8.83
2022-11-16T07:06:11.423Z,13.52
2022-11-16T07:08:40.744Z,11.38
2022-11-16T07:11:10.601Z,15.32
2022-11-16T07:13:39.160Z,14.38
2022-11-16T07:16:09.617Z,11.85
2022-11-16T07:18:41.414Z,15.60
2022-11-16T07:21:10.422Z,20.83
2022-11-16T07:23:39.034Z,23.52
2022-11-16T07:26:09.722Z,18.77
2022-11-16T07:29:09.458Z,29.75
2022-11-16T07:34:31.319Z,11.75
2022-11-16T07:37:06.062Z,7.28
2022-11-16T07:39:33.633Z,13.50
2022-11-16T07:42:00.745Z,9.13
2022-11-16T07:44:44.457Z,9.90
2022-11-16T07:47:11.630Z,10.07
2022-11-16T07:49:38.958Z,9.18
2022-11-16T07:52:18.397Z,9.52
2022-11-16T07:55:06.242Z,8.77
2022-11-16T07:57:34.713Z,8.70
2022-11-16T08:00:06.777Z,48.83
2022-11-16T08:02:43.198Z,11.68
2022-11-16T08:05:17.183Z,15.10
2022-11-16T08:07:44.798Z,16.83
2022-11-16T08:10:11.904Z,10.73
2022-11-16T08:12:40.292Z,13.95
2022-11-16T08:15:08.482Z,19.67
2022-11-16T08:17:35.710Z,13.18
2022-11-16T08:20:05.560Z,7.65
2022-11-16T08:22:32.717Z,30.02
2022-11-16T08:24:59.811Z,15.95
2022-11-16T08:27:27.309Z,22.58
2022-11-16T08:29:56.540Z,8.55
2022-11-16T08:32:23.790Z,23.08
2022-11-16T08:34:51.171Z,12.93
2022-11-16T08:37:18.798Z,16.23
2022-11-16T08:39:47.583Z,10.30
2022-11-16T08:42:15.031Z,5.95
2022-11-16T08:44:46.773Z,10.20
2022-11-16T08:47:16.759Z,6.90
2022-11-16T08:49:55.873Z,6.35
2022-11-16T08:52:25.162Z,8.25
2022-11-16T08:54:53.956Z,6.97
2022-11-16T08:57:21.644Z,10.23
2022-11-16T08:59:53.956Z,10.10
2022-11-16T09:02:25.502Z,8.38
2022-11-16T09:07:21.112Z,5.07
2022-11-16T09:09:48.816Z,8.35
2022-11-16T09:12:16.571Z,9.18
2022-11-16T09:14:43.898Z,13.60
2022-11-16T09:17:11.096Z,7.07
2022-11-16T09:19:38.206Z,8.48
2022-11-16T09:22:05.513Z,9.38
2022-11-16T09:24:32.812Z,27.38
2022-11-16T09:27:01.589Z,13.65
2022-11-16T09:29:28.816Z,8.18
2022-11-16T09:31:56.314Z,10.60
2022-11-16T09:34:23.675Z,33.88
2022-11-16T09:36:50.732Z,10.13
2022-11-16T09:39:33.250Z,19.65
2022-11-16T09:42:27.248Z,12.27
2022-11-16T09:45:12.648Z,19.33
2022-11-16T09:47:49.333Z,12.43
2022-11-16T09:50:43.711Z,10.98
2022-11-16T09:53:38.048Z,7.45
2022-11-16T09:56:11.181Z,8.55
2022-11-16T09:59:00.381Z,8.52
2022-11-16T10:01:32.762Z,32.95
2022-11-16T10:04:26.858Z,14.40
2022-11-16T10:07:22.691Z,10.30
2022-11-16T10:09:50.022Z,7.55
2022-11-16T10:12:31.371Z,12.38
2022-11-16T10:15:39.454Z,13.70
2022-11-16T10:18:27.547Z,11.48
2022-11-16T10:21:23.813Z,6.05
2022-11-16T10:24:27.429Z,12.48
2022-11-16T10:27:17.789Z,14.23
2022-11-16T10:30:08.279Z,11.27
2022-11-16T10:32:56.899Z,10.65
2022-11-16T10:35:26.843Z,9.77
2022-11-16T10:37:54.454Z,13.32
2022-11-16T10:40:30.639Z,13.95
2022-11-16T10:43:10.385Z,10.45
2022-11-16T10:45:49.760Z,10.10
2022-11-16T10:48:37.189Z,11.07
2022-11-16T10:51:09.823Z,16.00
2022-11-16T10:53:43.883Z,9.38
2022-11-16T10:56:16.121Z,10.20
2022-11-16T10:59:23.013Z,5.00
2022-11-16T11:01:53.463Z,9.75
2022-11-16T11:04:31.746Z,10.45
2022-11-16T11:07:01.135Z,12.27
2022-11-16T11:09:33.617Z,12.32
2022-11-16T11:12:38.285Z,7.05
2022-11-16T11:15:11.424Z,15.85
2022-11-16T11:17:44.302Z,7.10
2022-11-16T11:20:24.380Z,10.25
2022-11-16T11:22:57.799Z,13.93
2022-11-16T11:25:41.457Z,11.00
2022-11-16T11:28:32.266Z,13.95
2022-11-16T11:31:01.714Z,9.82
2022-11-16T11:33:38.707Z,16.50
2022-11-16T11:36:27.650Z,34.10
2022-11-16T11:38:58.482Z,21.15
2022-11-16T11:41:28.532Z,23.88
2022-11-16T11:44:03.428Z,15.52
2022-11-16T11:47:18.269Z,15.30
2022-11-16T11:49:34.054Z,23.02
2022-11-16T11:52:18.029Z,25.85
2022-11-16T11:54:47.991Z,16.25
2022-11-16T11:57:22.191Z,15.77
2022-11-16T11:59:54.559Z,12.07
2022-11-16T12:02:49.613Z,14.90
2022-11-16T12:06:06.316Z,9.52
2022-11-16T12:08:39.713Z,7.97
2022-11-16T12:11:27.503Z,18.13
2022-11-16T12:13:54.655Z,60.97
2022-11-16T12:16:24.664Z,38.53
2022-11-16T12:18:55.749Z,45.30
2022-11-16T12:24:23.356Z,7.47
2022-11-16T12:27:11.581Z,25.27
2022-11-16T12:29:43.712Z,13.48
2022-11-16T12:32:48.282Z,9.50
2022-11-16T12:35:26.574Z,9.70
2022-11-16T12:38:38.302Z,15.55
2022-11-16T12:41:26.356Z,20.85
2022-11-16T12:44:16.611Z,8.40
2022-11-16T12:47:05.896Z,16.48
2022-11-16T12:49:45.425Z,12.35
2022-11-16T12:52:38.184Z,127.88
2022-11-16T12:55:57.803Z,40.85
2022-11-16T12:58:30.829Z,48.97
2022-11-16T13:01:19.109Z,19.25
2022-11-16T13:04:24.434Z,34.40
2022-11-16T13:07:12.822Z,20.58
2022-11-16T13:09:48.940Z,19.85
2022-11-16T13:12:19.463Z,80.05
2022-11-16T13:14:49.862Z,26.25
2022-11-16T13:17:24.197Z,37.20
2022-11-16T13:20:22.113Z,35.70
2022-11-16T13:23:07.039Z,15.10
2022-11-16T13:26:03.979Z,9.60
2022-11-16T13:28:50.764Z,9.27
2022-11-16T13:31:43.963Z,18.25
2022-11-16T13:34:35.754Z,12.00
2022-11-16T13:37:40.169Z,11.15
2022-11-16T13:40:07.386Z,21.73
2022-11-16T13:43:02.958Z,9.85
2022-11-16T13:45:57.491Z,11.18
2022-11-16T13:48:34.843Z,17.23
2022-11-16T13:51:05.849Z,20.25
2022-11-16T13:56:49.135Z,12.52
2022-11-16T13:59:22.942Z,15.02
2022-11-16T14:01:59.462Z,18.13
2022-11-16T14:04:41.911Z,12.52
2022-11-16T14:07:29.636Z,12.57
2022-11-16T14:09:57.397Z,18.98
2022-11-16T14:12:50.476Z,11.30
2022-11-16T14:15:26.525Z,11.13
2022-11-16T14:18:03.217Z,20.90
2022-11-16T14:20:30.377Z,13.95
2022-11-16T14:23:34.619Z,17.17
2022-11-16T14:26:42.202Z,12.13
2022-11-16T14:29:15.584Z,37.42
2022-11-16T14:31:56.951Z,22.20
2022-11-16T14:34:40.183Z,14.05
2022-11-16T14:37:30.537Z,10.15
2022-11-16T14:40:08.550Z,58.58
2022-11-16T14:43:15.427Z,18.35
2022-11-16T14:45:39.176Z,12.45
2022-11-16T14:48:17.638Z,10.05
2022-11-16T14:50:58.912Z,18.55
2022-11-16T14:53:28.387Z,10.52
2022-11-16T14:56:11.018Z,16.40
2022-11-16T14:58:39.104Z,11.13
2022-11-16T15:01:14.664Z,14.32
2022-11-16T15:03:52.717Z,14.10
2022-11-16T15:06:21.125Z,15.20
2022-11-16T15:09:02.403Z,12.43
2022-11-16T15:11:56.263Z,14.52
2022-11-16T15:14:30.133Z,17.45
2022-11-16T15:16:59.230Z,14.77
2022-11-16T15:19:30.723Z,14.13
2022-11-16T15:22:00.524Z,12.77
2022-11-16T15:24:33.766Z,15.98
2022-11-16T15:27:35.922Z,15.30
2022-11-16T15:30:34.246Z,17.23
2022-11-16T15:33:11.298Z,15.50
2022-11-16T15:35:38.998Z,16.63
2022-11-16T15:38:29.421Z,17.40
2022-11-16T15:40:59.526Z,11.15
2022-11-16T15:43:49.760Z,15.20
2022-11-16T15:46:32.309Z,15.32
2022-11-16T15:49:00.156Z,10.05
2022-11-16T15:51:32.986Z,15.70
2022-11-16T15:54:15.281Z,11.75
2022-11-16T15:56:43.026Z,13.90
2022-11-16T15:59:13.489Z,17.52
2022-11-16T16:01:45.432Z,17.65
2022-11-16T16:04:17.981Z,11.35
2022-11-16T16:06:52.940Z,14.57
2022-11-16T16:09:29.131Z,15.65
2022-11-16T16:12:16.783Z,16.38
2022-11-16T16:14:44.845Z,12.75
2022-11-16T16:17:22.201Z,19.15
2022-11-16T16:20:00.769Z,19.52
2022-11-16T16:22:37.874Z,16.63
2022-11-16T16:25:06.777Z,14.32
2022-11-16T16:27:40.011Z,16.88
2022-11-16T16:30:08.810Z,17.35
2022-11-16T16:32:37.916Z,17.63
2022-11-16T16:35:07.789Z,16.45
2022-11-16T16:37:38.723Z,17.92
2022-11-16T16:40:06.693Z,15.52
2022-11-16T16:42:33.977Z,20.80
2022-11-16T16:45:02.404Z,31.77
2022-11-16T16:47:29.841Z,21.63
2022-11-16T16:49:57.661Z,13.95
2022-11-16T16:52:24.949Z,15.10
2022-11-16T16:54:52.101Z,13.68
2022-11-16T16:57:19.321Z,15.50
2022-11-16T16:59:49.914Z,14.40
2022-11-16T17:02:18.223Z,12.02
2022-11-16T17:04:47.043Z,16.20
2022-11-16T17:07:15.988Z,21.40
2022-11-16T17:09:43.307Z,12.48
2022-11-16T17:12:11.169Z,13.52
2022-11-16T17:14:39.212Z,17.27
2022-11-16T17:17:06.393Z,21.27
2022-11-16T17:19:33.512Z,18.92
2022-11-16T17:22:00.750Z,17.48
2022-11-16T17:24:27.917Z,18.50
2022-11-16T17:26:55.273Z,18.30
2022-11-16T17:29:22.424Z,20.30
2022-11-16T17:31:49.612Z,18.30
2022-11-16T17:34:16.782Z,47.55
2022-11-16T17:36:45.012Z,29.08
2022-11-16T17:39:12.273Z,48.55
2022-11-16T17:41:40.755Z,32.10
2022-11-16T17:44:08.791Z,23.75
2022-11-16T17:46:36.011Z,37.97
2022-11-16T17:49:03.272Z,18.65
2022-11-16T17:51:30.504Z,46.22
2022-11-16T17:53:57.907Z,75.82
2022-11-16T17:56:27.376Z,44.20
2022-11-16T17:59:00.902Z,34.50
2022-11-16T18:01:28.523Z,21.42
2022-11-16T18:03:56.109Z,21.05
2022-11-16T18:06:25.340Z,108.28
2022-11-16T18:08:53.368Z,32.95
2022-11-16T18:11:25.786Z,46.42
2022-11-16T18:13:55.348Z,16.98
2022-11-16T18:16:26.580Z,24.20
2022-11-16T18:19:05.322Z,50.03
2022-11-16T18:21:38.393Z,67.35
2022-11-16T18:24:06.370Z,17.75
2022-11-16T18:26:33.599Z,41.10
2022-11-16T18:29:00.944Z,40.25
2022-11-16T18:31:29.889Z,44.15
2022-11-16T18:33:57.060Z,18.58
2022-11-16T18:36:24.360Z,19.23
2022-11-16T18:38:51.603Z,31.15
2022-11-16T18:41:21.853Z,19.08
2022-11-16T18:43:53.483Z,35.38
2022-11-16T18:46:23.127Z,27.20
2022-11-16T18:48:53.319Z,35.83
2022-11-16T18:51:23.002Z,19.40
2022-11-16T18:53:51.237Z,19.58
2022-11-16T18:56:19.523Z,23.17
2022-11-16T18:58:52.428Z,48.47
2022-11-16T19:01:26.925Z,96.15
2022-11-16T19:03:57.987Z,39.90
2022-11-16T19:06:25.628Z,27.50
2022-11-16T19:09:01.346Z,46.35
2022-11-16T19:14:10.380Z,33.88
2022-11-16T19:16:41.873Z,55.72
2022-11-16T19:19:13.115Z,34.00
2022-11-16T19:21:43.302Z,61.25
2022-11-16T19:24:13.632Z,49.90
2022-11-16T19:26:43.031Z,43.10
2022-11-16T19:29:13.457Z,56.05
2022-11-16T19:31:47.062Z,51.88
2022-11-16T19:34:40.886Z,50.13
2022-11-16T19:37:09.620Z,35.05
2022-11-16T19:39:36.969Z,43.00
2022-11-16T19:42:04.728Z,58.13
2022-11-16T19:44:31.864Z,71.03
2022-11-16T19:47:00.835Z,67.07
2022-11-16T19:49:28.277Z,66.93
2022-11-16T19:51:56.399Z,35.38
2022-11-16T19:54:24.467Z,64.82
2022-11-16T19:56:55.011Z,84.70
2022-11-16T19:59:23.243Z,103.75
2022-11-16T20:01:50.516Z,77.00
2022-11-16T20:04:17.733Z,81.53
2022-11-16T20:06:45.132Z,68.15
2022-11-16T20:09:12.979Z,92.90
2022-11-16T20:11:41.552Z,92.90
2022-11-16T20:14:10.847Z,62.78
2022-11-16T20:16:42.476Z,50.08
2022-11-16T20:19:10.681Z,71.88
2022-11-16T20:21:39.928Z,46.50
2022-11-16T20:24:09.714Z,50.55
2022-11-16T20:26:40.748Z,50.90
2022-11-16T20:29:10.351Z,28.70
2022-11-16T20:31:38.550Z,44.35
2022-11-16T20:34:06.224Z,57.90
2022-11-16T20:36:34.169Z,173.82
2022-11-16T20:39:02.503Z,126.82
2022-11-16T20:41:31.437Z,169.63
2022-11-16T20:44:00.418Z,124.75
2022-11-16T20:46:29.936Z,78.00
2022-11-16T20:48:59.506Z,44.30
2022-11-16T20:51:27.125Z,55.40
2022-11-16T20:53:54.230Z,36.45
2022-11-16T20:56:22.192Z,22.13
2022-11-16T20:58:50.628Z,31.17
2022-11-16T21:01:29.073Z,27.95
2022-11-16T21:03:57.747Z,33.33
2022-11-16T21:06:25.599Z,25.42
2022-11-16T21:08:53.237Z,27.67
2022-11-16T21:11:28.213Z,22.77
2022-11-16T21:14:13.891Z,22.95
2022-11-16T21:16:44.350Z,23.25
2022-11-16T21:19:11.976Z,30.30
2022-11-16T21:21:41.085Z,28.05
2022-11-16T21:24:09.279Z,18.02
2022-11-16T21:26:37.454Z,17.88
2022-11-16T21:29:05.251Z,28.30
2022-11-16T21:31:34.957Z,28.90
2022-11-16T21:34:02.383Z,38.90
2022-11-16T21:36:31.784Z,28.60
2022-11-16T21:38:59.509Z,23.55
2022-11-16T21:41:26.726Z,22.33
2022-11-16T21:43:54.105Z,91.82
2022-11-16T21:46:24.987Z,30.08
2022-11-16T21:48:53.915Z,29.25
2022-11-16T21:51:24.904Z,37.65
2022-11-16T21:53:52.563Z,41.75
2022-11-16T21:56:21.906Z,42.25
2022-11-16T21:58:52.593Z,42.80
2022-11-16T22:01:21.056Z,44.70
2022-11-16T22:04:08.625Z,25.55
2022-11-16T22:06:54.249Z,68.88
2022-11-16T22:09:21.679Z,145.85
2022-11-16T22:11:48.892Z,50.97
2022-11-16T22:14:16.120Z,29.02
2022-11-16T22:16:43.423Z,25.83
2022-11-16T22:19:10.672Z,30.77
2022-11-16T22:21:37.806Z,33.72
2022-11-16T22:24:05.520Z,22.38
2022-11-16T22:26:33.669Z,26.05
2022-11-16T22:29:01.104Z,17.83
2022-11-16T22:31:28.307Z,15.90
2022-11-16T22:33:55.517Z,15.82
2022-11-16T22:36:22.589Z,15.95
2022-11-16T22:38:49.863Z,13.65
2022-11-16T22:41:17.111Z,13.45
2022-11-16T22:43:44.162Z,14.20
2022-11-16T22:46:11.376Z,20.20
2022-11-16T22:48:40.171Z,23.38
2022-11-16T22:51:12.267Z,15.30
2022-11-16T22:56:08.234Z,13.68
2022-11-16T22:58:37.090Z,13.20
2022-11-16T23:01:05.511Z,13.32
2022-11-16T23:03:32.753Z,12.68
2022-11-16T23:06:02.754Z,16.20
2022-11-16T23:08:30.309Z,18.67
2022-11-16T23:11:21.773Z,17.98
2022-11-16T23:14:07.898Z,10.60
2022-11-16T23:16:35.713Z,19.60
2022-11-16T23:19:03.206Z,14.93
2022-11-16T23:21:48.717Z,18.50
2022-11-16T23:24:34.448Z,19.55
2022-11-16T23:27:22.400Z,12.10
2022-11-16T23:29:49.965Z,15.25
2022-11-16T23:32:17.499Z,17.20
2022-11-16T23:34:44.754Z,12.65
2022-11-16T23:37:11.828Z,18.63
2022-11-16T23:39:38.855Z,30.75
2022-11-16T23:42:24.473Z,51.20
2022-11-16T23:44:51.644Z,23.52
2022-11-16T23:47:19.018Z,14.15
2022-11-16T23:49:46.091Z,15.73
2022-11-16T23:52:13.253Z,11.05
2022-11-16T23:54:40.410Z,12.52
2022-11-16T23:57:07.789Z,10.18
2022-11-16T23:59:35.089Z,14.00
